Time;durP1;ratioP1;P1;durP2;ratioP2;P2;SDS_P1;SDS_P2;PMS_P1;PMS_P2;Temp;Humidity;BMP_temperature;BMP_pressure;BME280_temperature;BME280_humidity;BME280_pressure;Samples;Min_cycle;Max_cycle;Signal;HPM_P1;HPM_P2
2022/11/10 00:01:47;;;;;;;5.57;3.90;;;;;;;9.19;100.00;100766.38;4899322;29;20789;-73
2022/11/10 00:04:32;;;;;;;5.87;4.23;;;;;;;9.18;100.00;100761.19;4895266;29;20430;-73
2022/11/10 00:07:18;;;;;;;5.07;3.80;;;;;;;9.18;100.00;100766.41;4900851;29;20809;-73
2022/11/10 00:10:04;;;;;;;5.77;3.57;;;;;;;9.15;100.00;100769.09;4899502;29;20270;-72
2022/11/10 00:12:51;;;;;;;5.50;3.53;;;;;;;9.10;100.00;100767.41;4900683;29;20291;-73
2022/11/10 00:18:41;;;;;;;6.70;3.93;;;;;;;9.11;100.00;100783.84;4897287;29;20207;-72
2022/11/10 00:21:26;;;;;;;6.77;3.63;;;;;;;9.10;100.00;100787.38;4897595;29;20530;-73
2022/11/10 00:24:13;;;;;;;4.70;3.20;;;;;;;9.06;100.00;100783.09;4897778;29;20262;-72
2022/11/10 00:26:58;;;;;;;6.03;3.87;;;;;;;9.03;100.00;100777.94;4898715;29;20225;-73
2022/11/10 00:29:43;;;;;;;6.80;3.57;;;;;;;9.02;100.00;100782.31;4898311;29;20723;-73
2022/11/10 00:32:28;;;;;;;5.60;3.60;;;;;;;9.02;100.00;100784.91;4897636;29;20237;-73
2022/11/10 00:35:13;;;;;;;5.57;3.87;;;;;;;9.03;100.00;100796.16;4906976;29;20692;-73
2022/11/10 00:37:58;;;;;;;4.60;3.43;;;;;;;9.03;100.00;100794.41;4899196;29;20271;-73
2022/11/10 00:40:45;;;;;;;4.53;3.17;;;;;;;9.02;100.00;100786.63;4900565;29;20286;-73
2022/11/10 00:43:30;;;;;;;5.80;3.57;;;;;;;8.99;100.00;100803.16;4896295;29;20235;-73
2022/11/10 00:46:15;;;;;;;5.37;3.63;;;;;;;8.96;100.00;100798.00;4895092;29;20503;-73
2022/11/10 00:49:00;;;;;;;5.30;3.27;;;;;;;8.95;100.00;100811.03;4896773;29;20223;-72
2022/11/10 00:51:46;;;;;;;4.23;2.90;;;;;;;8.88;100.00;100808.53;4895964;29;21064;-73
2022/11/10 00:54:31;;;;;;;5.30;3.60;;;;;;;8.90;100.00;100814.56;4896145;29;20508;-73
2022/11/10 00:57:18;;;;;;;3.23;2.80;;;;;;;8.90;100.00;100821.53;4896147;29;20215;-73
2022/11/10 01:00:04;;;;;;;5.17;3.30;;;;;;;8.88;100.00;100826.75;4896264;29;21055;-72
2022/11/10 01:02:49;;;;;;;4.57;2.93;;;;;;;8.90;100.00;100827.56;4898914;29;20232;-72
2022/11/10 01:05:37;;;;;;;5.00;2.97;;;;;;;8.93;100.00;100828.41;4898029;29;20209;-73
2022/11/10 01:08:22;;;;;;;3.97;2.67;;;;;;;8.90;100.00;100827.56;4897997;29;20222;-73
2022/11/10 01:11:12;;;;;;;4.83;3.10;;;;;;;8.92;100.00;100835.34;4897969;29;20223;-73
2022/11/10 01:13:58;;;;;;;4.07;2.63;;;;;;;8.88;100.00;100837.13;4897507;29;20203;-73
2022/11/10 01:16:43;;;;;;;3.17;2.67;;;;;;;8.81;100.00;100838.13;4899340;29;20467;-73
2022/11/10 01:19:28;;;;;;;3.47;2.60;;;;;;;8.79;100.00;100839.84;4898199;29;20246;-73
2022/11/10 01:22:14;;;;;;;3.53;3.07;;;;;;;8.75;100.00;100843.41;4898941;29;20282;-73
2022/11/10 01:24:59;;;;;;;6.20;3.00;;;;;;;8.70;100.00;100840.84;4896275;29;20226;-73
2022/11/10 01:27:44;;;;;;;3.93;2.70;;;;;;;8.66;100.00;100848.75;4899864;29;20668;-73
2022/11/10 01:30:30;;;;;;;4.07;2.30;;;;;;;8.59;100.00;100842.78;4896154;29;20236;-73
2022/11/10 01:33:16;;;;;;;3.97;2.47;;;;;;;8.52;100.00;100854.97;4891945;29;20715;-72
2022/11/10 01:36:01;;;;;;;3.10;2.60;;;;;;;8.49;100.00;100854.16;4892825;29;20226;-73
2022/11/10 01:38:46;;;;;;;5.13;2.90;;;;;;;8.43;100.00;100857.72;4904941;29;20278;-72
2022/11/10 01:41:31;;;;;;;2.73;2.30;;;;;;;8.37;100.00;100860.34;4901593;29;20266;-72
2022/11/10 01:44:18;;;;;;;2.83;2.63;;;;;;;8.31;100.00;100852.66;4897944;29;20282;-73
2022/11/10 01:47:05;;;;;;;6.07;2.63;;;;;;;8.24;100.00;100864.84;4900365;29;20383;-73
2022/11/10 01:49:50;;;;;;;3.97;2.47;;;;;;;8.20;100.00;100859.75;4902848;29;20242;-72
2022/11/10 01:52:36;;;;;;;4.57;2.40;;;;;;;8.15;100.00;100868.44;4903659;29;20425;-73
2022/11/10 01:55:21;;;;;;;2.93;2.30;;;;;;;8.10;100.00;100870.22;4902071;29;20267;-72
2022/11/10 01:58:06;;;;;;;6.40;2.67;;;;;;;8.06;100.00;100865.94;4902044;29;20246;-73
2022/11/10 02:00:52;;;;;;;3.97;2.73;;;;;;;8.04;100.00;100862.50;4902200;29;22101;-72
2022/11/10 02:03:43;;;;;;;5.77;2.50;;;;;;;8.03;100.00;100867.72;4901229;29;20292;-72
2022/11/10 02:06:33;;;;;;;2.90;2.53;;;;;;;8.03;100.00;100868.56;4900972;29;20614;-73
2022/11/10 02:09:19;;;;;;;3.13;2.43;;;;;;;8.01;100.00;100864.28;4901429;29;20241;-73
2022/11/10 02:12:05;;;;;;;2.60;2.40;;;;;;;7.94;100.00;100869.53;4901714;29;20294;-72
2022/11/10 02:14:50;;;;;;;3.23;2.70;;;;;;;7.89;100.00;100871.31;4905668;29;20210;-73
2022/11/10 02:17:36;;;;;;;5.10;2.70;;;;;;;7.87;100.00;100883.47;4901328;29;20652;-73
2022/11/10 02:20:23;;;;;;;3.13;2.60;;;;;;;7.83;100.00;100878.31;4901814;29;20286;-73
2022/11/10 02:23:15;;;;;;;3.87;2.70;;;;;;;7.83;100.00;100889.56;4901409;29;20230;-73
2022/11/10 02:26:02;;;;;;;3.50;2.80;;;;;;;7.77;100.00;100887.91;4900636;29;20316;-73
2022/11/10 02:28:47;;;;;;;2.97;2.67;;;;;;;7.75;100.00;100887.03;4901243;29;20229;-73
2022/11/10 02:31:32;;;;;;;2.23;2.00;;;;;;;7.70;100.00;100893.16;4903671;29;20229;-72
2022/11/10 02:34:17;;;;;;;4.50;2.43;;;;;;;7.63;100.00;100897.53;4899386;29;20321;-72
2022/11/10 02:37:02;;;;;;;2.73;2.40;;;;;;;7.58;100.00;100908.00;4900364;29;21307;-73
2022/11/10 02:39:48;;;;;;;3.60;2.63;;;;;;;7.53;100.00;100917.53;4907314;29;20237;-72
2022/11/10 02:42:33;;;;;;;4.50;2.87;;;;;;;7.49;100.00;100915.88;4900559;29;20216;-73
2022/11/10 02:45:18;;;;;;;6.03;2.43;;;;;;;7.48;100.00;100924.50;4905542;29;20451;-72
2022/11/10 02:48:04;;;;;;;3.03;2.20;;;;;;;7.49;100.00;100915.88;4898968;29;20356;-72
2022/11/10 02:50:49;;;;;;;3.23;2.53;;;;;;;7.49;100.00;100930.53;4901840;29;20244;-73
2022/11/10 02:53:34;;;;;;;2.93;2.63;;;;;;;7.44;100.00;100937.50;4903017;29;21959;-72
2022/11/10 02:56:20;;;;;;;2.40;2.20;;;;;;;7.37;100.00;100936.72;4900941;29;20221;-72
2022/11/10 02:59:05;;;;;;;2.70;2.50;;;;;;;7.34;100.00;100947.13;4898786;29;20234;-73
2022/11/10 03:01:50;;;;;;;4.30;2.60;;;;;;;7.31;100.00;100940.19;4898383;29;20255;-72
2022/11/10 03:04:35;;;;;;;2.80;2.47;;;;;;;7.30;100.00;100948.88;4902309;29;20358;-72
2022/11/10 03:07:20;;;;;;;5.93;2.80;;;;;;;7.28;100.00;100942.84;4900238;29;20220;-72
2022/11/10 03:10:06;;;;;;;4.67;2.40;;;;;;;7.30;100.00;100948.00;4906591;29;20595;-73
2022/11/10 03:12:55;;;;;;;3.03;2.60;;;;;;;7.26;100.00;100954.06;4899278;29;20262;-72
2022/11/10 03:15:40;;;;;;;3.13;2.20;;;;;;;7.18;100.00;100964.53;4900101;29;20645;-72
2022/11/10 03:18:25;;;;;;;3.00;2.40;;;;;;;7.15;100.00;100964.53;4898726;29;20219;-72
2022/11/10 03:21:10;;;;;;;5.27;2.60;;;;;;;7.12;100.00;100961.94;4941007;23;20722;-71
2022/11/10 03:23:55;;;;;;;3.20;2.80;;;;;;;7.13;100.00;100972.31;4935434;28;20584;-72
2022/11/10 03:26:44;;;;;;;3.53;2.67;;;;;;;7.17;100.00;100976.59;4939316;28;20215;-72
2022/11/10 03:29:30;;;;;;;3.20;2.20;;;;;;;7.25;100.00;100992.13;4937826;28;20207;-71
2022/11/10 03:32:15;;;;;;;4.23;3.03;;;;;;;7.28;100.00;100994.72;4938674;28;20300;-71
2022/11/10 03:35:00;;;;;;;4.93;2.60;;;;;;;7.30;100.00;101000.75;4938227;28;20206;-71
2022/11/10 03:37:46;;;;;;;4.53;2.90;;;;;;;7.28;100.00;100999.91;4935725;28;20227;-72
2022/11/10 03:40:32;;;;;;;3.67;2.43;;;;;;;7.38;100.00;101004.13;4939112;28;20232;-71
2022/11/10 03:43:17;;;;;;;7.90;2.77;;;;;;;7.41;100.00;101005.00;4936211;28;20315;-71
2022/11/10 03:46:03;;;;;;;3.40;2.50;;;;;;;7.43;100.00;101008.44;4935509;28;20215;-72
2022/11/10 03:48:48;;;;;;;3.23;2.50;;;;;;;7.41;100.00;101011.03;4936606;28;20242;-72
2022/11/10 03:51:34;;;;;;;4.83;2.57;;;;;;;7.39;100.00;101013.66;4937782;28;20236;-71
2022/11/10 03:54:19;;;;;;;4.60;2.50;;;;;;;7.33;100.00;101018.00;4938098;28;20217;-72
2022/11/10 03:57:04;;;;;;;2.57;2.30;;;;;;;7.25;100.00;101025.84;4938091;28;20269;-71
2022/11/10 03:59:49;;;;;;;3.23;2.90;;;;;;;7.19;100.00;101018.97;4940178;28;20269;-72
2022/11/10 04:02:36;;;;;;;3.20;2.47;;;;;;;7.11;100.00;101023.34;4938176;28;20645;-71
2022/11/10 04:17:32;;;;;;;5.93;2.37;;;;;;;6.95;100.00;101043.28;4937278;28;20205;-71
2022/11/10 04:20:19;;;;;;;2.87;1.63;;;;;;;6.97;100.00;101044.13;4942751;28;20262;-72
2022/11/10 04:29:12;;;;;;;2.40;2.20;;;;;;;6.89;100.00;101048.47;4936009;28;20217;-72
2022/11/10 04:31:57;;;;;;;3.60;2.73;;;;;;;6.89;100.00;101058.00;4936630;28;20265;-71
2022/11/10 04:34:42;;;;;;;3.80;2.50;;;;;;;6.86;100.00;101061.47;4939889;28;20218;-71
2022/11/10 04:37:28;;;;;;;2.63;2.33;;;;;;;6.83;100.00;101067.53;4933059;28;20620;-72
2022/11/10 04:40:13;;;;;;;3.43;2.13;;;;;;;6.85;100.00;101070.13;4941267;28;20238;-72
2022/11/10 04:42:58;;;;;;;3.50;2.20;;;;;;;6.88;100.00;101082.19;4937923;28;20233;-71
2022/11/10 04:45:43;;;;;;;5.57;2.57;;;;;;;6.93;100.00;101070.06;4936163;28;20698;-71
2022/11/10 04:48:29;;;;;;;4.90;2.20;;;;;;;6.91;100.00;101083.06;4937199;28;20217;-72
2022/11/10 04:51:17;;;;;;;2.20;2.00;;;;;;;6.91;100.00;101092.56;4937364;28;20611;-72
2022/11/10 04:54:05;;;;;;;4.80;2.43;;;;;;;6.83;100.00;101087.41;4937752;28;21003;-72
2022/11/10 04:56:51;;;;;;;3.90;2.17;;;;;;;6.82;100.00;101099.50;4936171;28;20217;-72
2022/11/10 04:59:36;;;;;;;3.27;2.27;;;;;;;6.80;100.00;101093.44;4936832;28;20644;-71
2022/11/10 05:02:21;;;;;;;3.77;2.00;;;;;;;6.84;100.00;101089.09;4933747;28;20342;-72
2022/11/10 05:05:06;;;;;;;2.87;2.30;;;;;;;6.84;100.00;101096.88;4934214;28;20237;-72
2022/11/10 05:07:52;;;;;;;2.17;1.83;;;;;;;6.85;100.00;101103.81;4937100;28;20428;-71
2022/11/10 05:10:38;;;;;;;2.67;2.17;;;;;;;6.87;100.00;101104.66;4937081;28;20704;-72
2022/11/10 05:13:24;;;;;;;7.73;2.47;;;;;;;6.86;100.00;101109.84;4938164;28;20245;-72
2022/11/10 05:16:09;;;;;;;3.03;2.53;;;;;;;6.91;100.00;101105.50;4935278;28;20320;-71
2022/11/10 05:18:57;;;;;;;5.20;1.97;;;;;;;6.96;100.00;101115.00;4937104;28;20206;-72
2022/11/10 05:21:42;;;;;;;2.27;1.77;;;;;;;6.97;100.00;101116.72;4935567;28;21396;-72
2022/11/10 05:24:27;;;;;;;6.37;2.50;;;;;;;6.97;100.00;101119.31;4941400;29;20226;-72
2022/11/10 05:27:13;;;;;;;4.67;2.30;;;;;;;6.98;100.00;101125.38;4936514;28;20246;-72
2022/11/10 05:29:59;;;;;;;6.80;2.30;;;;;;;7.05;100.00;101123.63;4938859;28;20648;-72
2022/11/10 05:32:44;;;;;;;3.77;2.10;;;;;;;7.08;100.00;101123.63;4934054;28;21930;-72
2022/11/10 05:35:29;;;;;;;2.50;1.87;;;;;;;7.15;100.00;101126.16;4935002;28;20217;-71
2022/11/10 05:38:14;;;;;;;4.77;2.23;;;;;;;7.22;100.00;101126.16;4932665;28;20655;-71
2022/11/10 05:40:59;;;;;;;3.87;2.50;;;;;;;7.26;100.00;101136.50;4937446;28;20231;-72
2022/11/10 05:43:46;;;;;;;3.17;2.10;;;;;;;7.27;100.00;101134.78;4934011;28;20238;-72
2022/11/10 05:46:31;;;;;;;2.80;2.20;;;;;;;7.27;100.00;101134.78;4938061;28;20294;-71
2022/11/10 05:49:16;;;;;;;2.30;2.10;;;;;;;7.25;100.00;101142.56;4938808;28;20573;-71
2022/11/10 05:52:02;;;;;;;2.87;2.33;;;;;;;7.26;100.00;101151.19;4929833;28;20275;-71
2022/11/10 05:54:47;;;;;;;5.53;2.60;;;;;;;7.30;100.00;101158.09;4939671;28;20258;-72
2022/11/10 05:57:32;;;;;;;3.87;2.43;;;;;;;7.34;100.00;101163.28;4936746;28;20342;-72
2022/11/10 06:00:21;;;;;;;3.73;2.40;;;;;;;7.35;100.00;101167.59;4939267;28;20241;-72
2022/11/10 06:03:12;;;;;;;5.00;2.37;;;;;;;7.39;100.00;101177.09;4934752;28;20216;-71
2022/11/10 06:05:57;;;;;;;4.47;2.17;;;;;;;7.44;100.00;101182.28;4933648;28;20237;-71
2022/11/10 06:08:42;;;;;;;4.13;1.90;;;;;;;7.44;100.00;101194.34;4938104;28;20267;-72
2022/11/10 06:11:27;;;;;;;4.83;2.43;;;;;;;7.46;100.00;101198.69;4933382;28;20604;-71
2022/11/10 06:14:12;;;;;;;4.23;2.07;;;;;;;7.51;100.00;101202.13;4936134;28;20839;-71
2022/11/10 06:16:58;;;;;;;4.23;2.53;;;;;;;7.56;100.00;101209.88;4937375;28;20686;-72
2022/11/10 06:19:45;;;;;;;4.23;2.30;;;;;;;7.55;100.00;101222.00;4942628;28;20243;-71
2022/11/10 06:22:30;;;;;;;6.27;2.70;;;;;;;7.56;100.00;101225.44;4940073;28;20271;-71
2022/11/10 06:25:15;;;;;;;2.43;2.20;;;;;;;7.56;100.00;101238.41;4945568;28;20855;-72
2022/11/10 06:28:01;;;;;;;3.40;2.20;;;;;;;7.56;100.00;101238.41;4943566;29;20214;-72
2022/11/10 06:30:46;;;;;;;2.47;2.10;;;;;;;7.59;100.00;101248.78;4941933;29;20300;-72
2022/11/10 06:33:32;;;;;;;4.00;2.17;;;;;;;7.63;100.00;101255.69;4939187;28;20235;-72
2022/11/10 06:36:18;;;;;;;3.03;2.17;;;;;;;7.67;100.00;101260.03;4939763;28;20678;-72
2022/11/10 06:39:03;;;;;;;3.17;2.00;;;;;;;7.70;100.00;101264.31;4943492;29;20721;-72
2022/11/10 06:41:49;;;;;;;3.40;2.43;;;;;;;7.73;100.00;101278.16;4942075;29;20587;-72
2022/11/10 06:44:34;;;;;;;8.47;2.23;;;;;;;7.78;100.00;101278.16;4940088;29;20602;-72
2022/11/10 06:47:18;;;;;;;4.83;2.50;;;;;;;7.84;100.00;101278.09;4937831;29;20820;-72
2022/11/10 06:50:06;;;;;;;9.13;2.80;;;;;;;7.91;100.00;101289.34;4947053;29;20736;-72
2022/11/10 06:52:54;;;;;;;5.70;2.10;;;;;;;7.99;100.00;101297.09;4945893;29;20225;-72
2022/11/10 06:55:39;;;;;;;5.27;2.30;;;;;;;8.03;100.00;101302.25;4948746;29;20765;-72
2022/11/10 06:58:24;;;;;;;4.87;2.30;;;;;;;8.05;100.00;101315.25;4948452;29;21422;-72
2022/11/10 07:01:09;;;;;;;4.93;2.23;;;;;;;8.07;100.00;101313.50;4944404;29;20653;-72
2022/11/10 07:03:54;;;;;;;9.27;2.20;;;;;;;8.04;100.00;101313.50;4944441;29;20748;-71
2022/11/10 07:06:41;;;;;;;6.47;2.37;;;;;;;8.00;100.00;101317.84;4941972;29;20743;-72
2022/11/10 07:09:26;;;;;;;7.27;2.80;;;;;;;7.94;100.00;101318.75;4943440;29;20213;-72
2022/11/10 07:12:11;;;;;;;5.23;2.23;;;;;;;7.92;100.00;101324.81;4939306;29;20838;-71
2022/11/10 07:14:56;;;;;;;8.53;2.17;;;;;;;7.89;100.00;101337.81;4940786;29;20787;-72
2022/11/10 07:17:41;;;;;;;4.57;2.17;;;;;;;7.85;100.00;101336.09;4943078;29;20216;-72
2022/11/10 07:20:27;;;;;;;3.57;1.90;;;;;;;7.88;100.00;101343.88;4944009;29;20311;-72
2022/11/10 07:23:13;;;;;;;3.10;2.40;;;;;;;7.83;100.00;101356.88;4941222;29;20219;-71
2022/11/10 07:25:59;;;;;;;2.30;2.00;;;;;;;7.77;100.00;101355.16;4943216;29;20238;-72
2022/11/10 07:28:44;;;;;;;9.30;2.50;;;;;;;7.75;100.00;101364.66;4944347;29;20303;-72
2022/11/10 07:31:29;;;;;;;5.67;3.00;;;;;;;7.77;100.00;101373.34;4940906;29;20450;-72
2022/11/10 07:34:14;;;;;;;7.97;2.50;;;;;;;7.82;100.00;101385.44;4939431;29;20247;-72
2022/11/10 07:36:59;;;;;;;4.33;2.43;;;;;;;7.88;100.00;101382.81;4940004;29;20261;-72
2022/11/10 07:39:45;;;;;;;8.57;2.63;;;;;;;7.88;100.00;101388.88;4945277;29;20238;-71
2022/11/10 07:42:31;;;;;;;4.23;2.83;;;;;;;7.91;100.00;101393.19;4942153;29;20578;-72
2022/11/10 07:45:16;;;;;;;3.37;2.47;;;;;;;7.89;100.00;101402.72;4943797;29;20266;-72
2022/11/10 07:48:02;;;;;;;4.77;2.40;;;;;;;7.86;100.00;101411.41;4946582;29;20239;-72
2022/11/10 07:50:47;;;;;;;6.57;2.40;;;;;;;7.85;100.00;101408.81;4945060;29;20258;-72
2022/11/10 07:53:32;;;;;;;4.70;2.50;;;;;;;7.85;100.00;101414.00;4945402;29;20541;-72
2022/11/10 07:56:18;;;;;;;6.67;2.13;;;;;;;7.86;100.00;101420.91;4942243;29;20687;-72
2022/11/10 07:59:03;;;;;;;6.77;2.50;;;;;;;7.86;100.00;101426.09;4941880;29;20224;-72
2022/11/10 08:01:48;;;;;;;6.83;2.70;;;;;;;7.92;100.00;101426.09;4940996;29;20222;-72
2022/11/10 08:04:33;;;;;;;5.03;2.20;;;;;;;8.02;100.00;101435.59;4944731;29;20232;-72
2022/11/10 08:07:18;;;;;;;7.43;2.60;;;;;;;8.13;100.00;101431.22;4940071;29;20216;-72
2022/11/10 08:10:04;;;;;;;5.97;2.50;;;;;;;8.27;100.00;101443.31;4942931;29;20243;-72
2022/11/10 08:12:55;;;;;;;4.53;2.53;;;;;;;8.33;100.00;101453.66;4940462;29;20243;-72
2022/11/10 08:15:40;;;;;;;5.53;2.40;;;;;;;8.37;100.00;101457.97;4940897;29;20343;-71
2022/11/10 08:18:25;;;;;;;4.73;2.10;;;;;;;8.37;100.00;101463.16;4940740;29;20293;-72
2022/11/10 08:21:10;;;;;;;5.60;2.43;;;;;;;8.36;100.00;101464.06;4936664;29;20241;-72
2022/11/10 08:23:55;;;;;;;4.53;2.40;;;;;;;8.31;100.00;101466.66;4941761;29;20719;-72
2022/11/10 08:26:40;;;;;;;6.00;2.10;;;;;;;8.28;100.00;101473.59;4941737;29;20310;-72
2022/11/10 08:29:27;;;;;;;3.60;2.13;;;;;;;8.25;100.00;101482.28;4943130;29;20300;-72
2022/11/10 08:32:12;;;;;;;3.17;1.93;;;;;;;8.23;100.00;101489.22;4939630;29;20215;-71
2022/11/10 08:34:57;;;;;;;4.93;1.87;;;;;;;8.26;100.00;101488.34;4944975;29;20229;-71
2022/11/10 08:37:42;;;;;;;4.63;2.10;;;;;;;8.37;100.00;101493.50;4940442;29;20213;-71
2022/11/10 08:40:27;;;;;;;4.70;2.10;;;;;;;8.56;100.00;101490.00;4947109;29;20289;-71
2022/11/10 08:43:13;;;;;;;4.23;2.30;;;;;;;8.67;100.00;101496.03;4941814;29;20968;-72
2022/11/10 08:46:00;;;;;;;5.47;1.80;;;;;;;8.74;100.00;101499.44;4939554;28;20710;-72
2022/11/10 08:48:45;;;;;;;2.23;1.70;;;;;;;8.79;100.00;101497.69;4945200;29;20225;-72
2022/11/10 08:51:31;;;;;;;3.07;1.70;;;;;;;8.86;100.00;101496.78;4947630;29;20237;-72
2022/11/10 08:54:15;;;;;;;4.43;1.90;;;;;;;8.90;100.00;101513.25;4942232;29;20629;-72
2022/11/10 08:57:01;;;;;;;5.30;1.63;;;;;;;9.00;100.00;101517.53;4945159;29;20354;-72
2022/11/10 08:59:45;;;;;;;5.57;2.10;;;;;;;9.09;100.00;101509.69;4945808;29;20232;-72
2022/11/10 09:02:32;;;;;;;2.53;1.70;;;;;;;9.18;100.00;101511.38;4940735;29;20208;-72
2022/11/10 09:05:17;;;;;;;3.27;1.70;;;;;;;9.31;100.00;101519.09;4940824;29;20228;-72
2022/11/10 09:08:03;;;;;;;3.93;1.80;;;;;;;9.39;100.00;101519.88;4941086;29;20221;-72
2022/11/10 09:10:49;;;;;;;4.80;2.00;;;;;;;9.51;100.00;101532.81;4942867;29;20232;-72
2022/11/10 09:13:34;;;;;;;3.53;1.77;;;;;;;9.56;100.00;101535.41;4941567;29;20222;-71
2022/11/10 09:16:19;;;;;;;2.50;1.90;;;;;;;9.64;100.00;101538.81;4944674;29;20213;-72
2022/11/10 09:19:06;;;;;;;4.47;2.00;;;;;;;9.77;100.00;101542.19;4941256;29;20209;-72
2022/11/10 09:21:51;;;;;;;6.10;2.23;;;;;;;9.81;100.00;101557.75;4942301;29;20214;-72
2022/11/10 09:24:37;;;;;;;2.03;1.50;;;;;;;9.93;100.00;101548.13;4937295;29;20618;-72
2022/11/10 09:27:22;;;;;;;2.53;1.63;;;;;;;9.99;100.00;101561.97;4939124;29;20960;-72
2022/11/10 09:30:09;;;;;;;3.07;1.40;;;;;;;10.01;100.00;101568.03;4942429;29;20504;-72
2022/11/10 09:32:54;;;;;;;3.70;1.40;;;;;;;10.03;100.00;101578.44;4946222;29;20216;-72
2022/11/10 09:35:41;;;;;;;2.03;1.47;;;;;;;10.04;100.00;101582.75;4942539;29;20214;-72
2022/11/10 09:38:26;;;;;;;3.67;1.73;;;;;;;10.11;100.00;101583.56;4946389;29;20217;-72
2022/11/10 09:41:14;;;;;;;4.60;1.70;;;;;;;10.20;100.00;101592.19;4944867;29;20727;-72
2022/11/10 09:44:03;;;;;;;2.13;1.70;;;;;;;10.35;100.00;101591.19;4943433;29;20219;-72
2022/11/10 09:46:54;;;;;;;6.87;1.93;;;;;;;10.53;100.00;101604.91;4941045;29;20235;-72
2022/11/10 09:49:44;;;;;;;2.40;1.30;;;;;;;10.61;100.00;101595.28;4941251;29;20349;-72
2022/11/10 09:52:34;;;;;;;3.30;1.33;;;;;;;10.71;100.00;101602.13;4945034;29;20216;-72
2022/11/10 09:55:30;;;;;;;4.43;1.60;;;;;;;10.72;100.00;101597.78;4939937;28;20789;-72
2022/11/10 09:58:17;;;;;;;3.67;1.43;;;;;;;10.71;100.00;101599.53;4946907;29;20239;-72
2022/11/10 10:01:12;;;;;;;1.63;1.40;;;;;;;10.78;100.00;101600.28;4947487;29;20714;-72
2022/11/10 10:04:08;;;;;;;2.70;1.43;;;;;;;10.83;100.00;101597.66;4944806;29;20312;-72
2022/11/10 10:06:58;;;;;;;3.27;1.50;;;;;;;10.80;100.00;101603.78;4943003;29;20724;-72
2022/11/10 10:09:52;;;;;;;2.80;1.40;;;;;;;10.69;100.00;101603.88;4947969;29;20264;-71
2022/11/10 10:12:50;;;;;;;2.53;1.10;;;;;;;10.68;100.00;101599.56;4943018;29;20289;-72
2022/11/10 10:15:44;;;;;;;5.00;1.20;;;;;;;10.70;100.00;101604.75;4949055;29;20220;-72
2022/11/10 10:18:37;;;;;;;5.57;1.90;;;;;;;10.83;100.00;101615.91;4944451;29;20246;-72
2022/11/10 10:21:33;;;;;;;2.43;1.33;;;;;;;10.93;100.00;101609.69;4947219;29;20260;-72
2022/11/10 10:24:20;;;;;;;4.67;1.43;;;;;;;11.07;100.00;101613.00;4941998;29;20295;-72
2022/11/10 10:27:15;;;;;;;4.57;1.47;;;;;;;11.14;100.00;101616.41;4945072;28;20241;-72
2022/11/10 10:30:00;;;;;;;2.93;1.40;;;;;;;11.15;100.00;101605.06;4942520;29;20702;-72
2022/11/10 10:32:45;;;;;;;4.47;1.30;;;;;;;11.19;100.00;101604.16;4939182;29;20623;-72
2022/11/10 10:35:33;;;;;;;1.93;1.50;;;;;;;11.16;100.00;101612.88;4946310;29;20213;-73
2022/11/10 10:38:25;;;;;;;3.87;1.47;;;;;;;11.24;100.00;101606.69;4946539;29;20861;-73
2022/11/10 10:41:15;;;;;;;2.37;1.30;;;;;;;11.26;100.00;101604.94;4948840;29;20741;-73
2022/11/10 10:44:09;;;;;;;5.70;1.50;;;;;;;11.35;100.00;101610.03;4948435;28;20216;-73
2022/11/10 10:46:57;;;;;;;2.83;1.10;;;;;;;11.36;100.00;101614.34;4943856;29;20235;-74
2022/11/10 10:49:42;;;;;;;1.70;1.10;;;;;;;11.33;100.00;101609.19;4948386;29;20756;-74
2022/11/10 10:52:27;;;;;;;3.40;1.17;;;;;;;11.40;100.00;101615.19;4949141;29;20710;-74
2022/11/10 10:55:13;;;;;;;3.47;1.60;;;;;;;11.40;100.00;101621.28;4947542;29;20217;-74
2022/11/10 10:58:00;;;;;;;3.43;1.50;;;;;;;11.35;100.00;101623.09;4947316;29;20695;-74
2022/11/10 11:00:51;;;;;;;1.80;1.33;;;;;;;11.39;100.00;101629.13;4936386;29;20798;-74
2022/11/10 11:03:42;;;;;;;3.97;1.37;;;;;;;11.45;100.00;101618.59;4938233;29;20586;-74
2022/11/10 11:06:33;;;;;;;5.90;1.33;;;;;;;11.56;100.00;101627.16;4942359;29;20244;-74
2022/11/10 11:09:23;;;;;;;3.47;1.33;;;;;;;11.54;100.00;101624.56;4945644;29;20239;-74
2022/11/10 11:12:12;;;;;;;2.83;1.33;;;;;;;11.62;100.00;101618.38;4942842;29;20233;-74
2022/11/10 11:15:25;;;;;;;3.70;1.40;;;;;;;11.74;100.00;101618.19;4947150;29;20329;-74
2022/11/10 11:18:14;;;;;;;2.90;1.30;;;;;;;11.71;100.00;101629.56;4936627;29;20218;-74
2022/11/10 11:21:07;;;;;;;5.57;1.47;;;;;;;11.79;100.00;101623.34;4948428;29;20244;-74
2022/11/10 11:24:13;;;;;;;1.97;1.03;;;;;;;11.90;100.00;101631.88;4945299;29;20260;-73
2022/11/10 11:27:04;;;;;;;3.67;1.20;;;;;;;11.99;100.00;101625.66;4941847;29;20218;-73
2022/11/10 11:30:05;;;;;;;1.60;1.30;;;;;;;12.08;100.00;101635.97;4941838;29;20242;-73
2022/11/10 11:33:02;;;;;;;2.80;1.23;;;;;;;12.29;100.00;101635.63;4946385;29;20306;-73
2022/11/10 11:35:57;;;;;;;3.57;1.40;;;;;;;12.40;100.00;101653.75;4944716;29;20213;-73
2022/11/10 11:38:52;;;;;;;3.10;1.53;;;;;;;12.40;100.00;101643.28;4947182;29;20228;-72
2022/11/10 11:41:43;;;;;;;2.13;1.10;;;;;;;12.48;100.00;101643.13;4944263;29;20248;-73
2022/11/10 11:44:48;;;;;;;3.40;1.20;;;;;;;12.49;100.00;101652.72;4948234;29;20220;-73
2022/11/10 11:47:48;;;;;;;2.97;1.10;;;;;;;12.52;100.00;101643.94;4943353;29;20840;-73
2022/11/10 11:50:40;;;;;;;2.73;1.17;;;;;;;12.61;100.00;101642.03;4948914;29;20269;-73
2022/11/10 11:53:42;;;;;;;2.83;1.23;;;;;;;12.70;100.00;101656.72;4949344;29;20723;-72
2022/11/10 11:56:31;;;;;;;2.33;1.00;;;;;;;12.86;100.00;101655.50;4949916;29;20240;-72
2022/11/10 11:59:35;;;;;;;1.83;1.07;;;;;;;12.96;100.00;101656.19;4947395;29;20214;-72
2022/11/10 12:02:33;;;;;;;5.87;1.03;;;;;;;13.00;100.00;101660.47;4945622;29;20279;-72
2022/11/10 12:05:37;;;;;;;4.53;1.17;;;;;;;13.02;100.00;101655.22;4942845;29;20302;-72
2022/11/10 12:08:37;;;;;;;3.80;1.03;;;;;;;12.84;100.00;101666.88;4944515;29;20213;-73
2022/11/10 12:11:30;;;;;;;4.97;1.10;;;;;;;12.93;100.00;101660.63;4947987;29;20315;-73
2022/11/10 12:14:21;;;;;;;4.77;1.13;;;;;;;12.97;100.00;101654.44;4944535;29;20215;-73
2022/11/10 12:17:12;;;;;;;1.30;0.97;;;;;;;13.06;100.00;101664.72;4943214;29;20377;-73
2022/11/10 12:20:06;;;;;;;1.13;0.97;;;;;;;12.99;100.00;101665.75;4948003;28;20248;-73
2022/11/10 12:22:59;;;;;;;2.73;0.97;;;;;;;12.93;100.00;101673.69;4946322;29;20215;-73
2022/11/10 12:25:58;;;;;;;3.77;0.90;;;;;;;12.95;100.00;101675.41;4947974;29;20232;-73
2022/11/10 12:28:48;;;;;;;3.10;1.20;;;;;;;12.92;100.00;101665.00;4944706;29;20215;-73
2022/11/10 12:31:37;;;;;;;1.30;1.03;;;;;;;12.88;100.00;101668.56;4941344;29;20538;-73
2022/11/10 12:34:32;;;;;;;2.77;1.20;;;;;;;12.96;100.00;101661.41;4947697;29;20217;-73
2022/11/10 12:37:24;;;;;;;3.30;1.20;;;;;;;13.08;100.00;101658.56;4942804;29;20682;-73
2022/11/10 12:40:15;;;;;;;6.93;1.23;;;;;;;13.14;100.00;101649.75;4946310;29;20239;-73
2022/11/10 12:43:06;;;;;;;1.77;0.90;;;;;;;13.18;100.00;101656.63;4942407;29;20219;-73
2022/11/10 12:45:55;;;;;;;1.43;0.97;;;;;;;13.14;100.00;101654.97;4944668;29;20219;-73
2022/11/10 12:48:53;;;;;;;3.53;1.10;;;;;;;13.24;100.00;101659.13;4947321;29;20215;-75
2022/11/10 12:51:49;;;;;;;1.73;0.83;;;;;;;13.21;100.00;101661.81;4947989;28;20269;-75
2022/11/10 12:54:36;;;;;;;4.13;1.00;;;;;;;13.12;100.00;101668.97;4945205;29;20250;-73
2022/11/10 12:57:24;;;;;;;5.60;1.00;;;;;;;13.10;100.00;101671.63;4943211;29;20742;-73
2022/11/10 13:00:26;;;;;;;2.90;1.30;;;;;;;13.01;100.00;101672.66;4946547;29;20240;-73
2022/11/10 13:03:24;;;;;;;3.37;1.00;;;;;;;13.02;100.00;101668.31;4944494;29;20219;-73
2022/11/10 13:06:25;;;;;;;3.57;1.47;;;;;;;12.98;100.00;101672.75;4944003;29;20223;-73
2022/11/10 13:09:22;;;;;;;4.40;1.17;;;;;;;12.93;100.00;101679.81;4939704;29;20213;-74
2022/11/10 13:12:19;;;;;;;1.70;0.80;;;;;;;12.77;100.00;101688.84;4941875;29;20225;-73
2022/11/10 13:15:38;;;;;;;1.90;0.93;;;;;;;12.61;100.00;101694.38;4940638;29;20212;-73
2022/11/10 13:18:59;;;;;;;3.03;1.10;;;;;;;12.52;100.00;101691.88;4945779;29;20891;-73